createdAt,value
2019-02-22T00:00:38.590Z,5.30
2019-02-22T00:01:12.632Z,4.53
2019-02-22T00:01:45.790Z,4.47
2019-02-22T00:02:18.991Z,3.90
2019-02-22T00:02:50.235Z,3.70
2019-02-22T00:03:21.556Z,3.23
2019-02-22T00:03:52.832Z,3.47
2019-02-22T00:04:24.210Z,3.60
2019-02-22T00:04:55.478Z,3.37
2019-02-22T00:05:26.778Z,2.57
2019-02-22T00:05:58.024Z,2.93
2019-02-22T00:06:31.241Z,3.30
2019-02-22T00:07:02.466Z,2.77
2019-02-22T00:07:33.778Z,3.00
2019-02-22T00:08:05.020Z,3.40
2019-02-22T00:08:36.337Z,3.97
2019-02-22T00:09:07.541Z,3.30
2019-02-22T00:09:48.851Z,3.13
2019-02-22T00:10:12.195Z,3.43
2019-02-22T00:10:43.506Z,3.10
2019-02-22T00:11:14.747Z,2.60
2019-02-22T00:11:46.132Z,2.60
2019-02-22T00:12:17.356Z,2.97
2019-02-22T00:12:48.688Z,2.33
2019-02-22T00:13:19.935Z,2.57
2019-02-22T00:13:51.244Z,3.00
2019-02-22T00:14:22.508Z,2.53
2019-02-22T00:14:53.833Z,2.87
2019-02-22T00:15:25.077Z,2.47
2019-02-22T00:15:56.399Z,2.40
2019-02-22T00:16:27.629Z,2.50
2019-02-22T00:16:59.034Z,2.57
2019-02-22T00:17:30.280Z,2.47
2019-02-22T00:18:01.601Z,2.70
2019-02-22T00:18:32.823Z,2.57
2019-02-22T00:19:04.133Z,2.70
2019-02-22T00:19:35.371Z,2.73
2019-02-22T00:20:06.863Z,3.27
2019-02-22T00:20:38.226Z,3.17
2019-02-22T00:21:09.533Z,3.20
2019-02-22T00:21:40.815Z,2.93
2019-02-22T00:22:12.227Z,2.83
2019-02-22T00:22:44.529Z,2.70
2019-02-22T00:23:15.860Z,3.00
2019-02-22T00:23:47.114Z,3.33
2019-02-22T00:24:18.435Z,2.40
2019-02-22T00:24:49.673Z,3.13
2019-02-22T00:25:22.019Z,3.23
2019-02-22T00:25:53.252Z,3.43
2019-02-22T00:26:24.598Z,3.00
2019-02-22T00:26:55.855Z,3.30
2019-02-22T00:27:27.182Z,2.90
2019-02-22T00:27:58.514Z,3.23
2019-02-22T00:28:29.870Z,3.50
2019-02-22T00:29:01.146Z,3.10
2019-02-22T00:29:32.433Z,3.13
2019-02-22T00:30:05.917Z,3.10
2019-02-22T00:30:37.206Z,3.07
2019-02-22T00:31:08.504Z,2.70
2019-02-22T00:31:39.782Z,2.50
2019-02-22T00:32:11.024Z,2.73
2019-02-22T00:32:42.710Z,3.03
2019-02-22T00:33:14.082Z,2.70
2019-02-22T00:33:45.366Z,2.43
2019-02-22T00:34:16.814Z,2.47
2019-02-22T00:34:48.172Z,2.43
2019-02-22T00:35:19.514Z,3.03
2019-02-22T00:35:50.826Z,2.70
2019-02-22T00:36:22.209Z,3.20
2019-02-22T00:36:53.510Z,2.60
2019-02-22T00:37:24.873Z,3.00
2019-02-22T00:37:56.191Z,3.33
2019-02-22T00:38:27.430Z,3.10
2019-02-22T00:38:58.703Z,2.70
2019-02-22T00:39:29.983Z,2.80
2019-02-22T00:40:01.453Z,2.83
2019-02-22T00:40:32.861Z,3.10
2019-02-22T00:41:04.095Z,3.17
2019-02-22T00:41:35.426Z,2.83
2019-02-22T00:42:06.669Z,2.87
2019-02-22T00:42:37.972Z,2.77
2019-02-22T00:43:09.251Z,2.63
2019-02-22T00:43:40.544Z,3.17
2019-02-22T00:44:11.821Z,2.90
2019-02-22T00:44:43.332Z,3.00
2019-02-22T00:45:14.602Z,3.10
2019-02-22T00:45:45.874Z,2.90
2019-02-22T00:46:17.159Z,2.90
2019-02-22T00:46:48.437Z,2.80
2019-02-22T00:47:19.734Z,2.30
2019-02-22T00:47:50.997Z,2.93
2019-02-22T00:48:22.254Z,3.03
2019-02-22T00:48:53.530Z,3.30
2019-02-22T00:49:24.809Z,3.10
2019-02-22T00:49:56.112Z,3.23
2019-02-22T00:50:27.383Z,3.13
2019-02-22T00:50:58.663Z,3.43
2019-02-22T00:51:29.934Z,3.27
2019-02-22T00:52:01.201Z,3.10
2019-02-22T00:52:32.470Z,3.67
2019-02-22T00:53:03.892Z,2.80
2019-02-22T00:53:35.197Z,3.63
2019-02-22T00:54:06.470Z,2.57
2019-02-22T00:54:37.758Z,3.03
2019-02-22T00:55:09.061Z,3.20
2019-02-22T00:55:40.430Z,2.90
2019-02-22T00:56:11.705Z,3.00
2019-02-22T00:56:43.210Z,3.03
2019-02-22T00:57:14.492Z,2.63
2019-02-22T00:57:45.785Z,2.83
2019-02-22T00:58:17.061Z,2.77
2019-02-22T00:58:48.347Z,3.17
2019-02-22T00:59:19.679Z,2.90
2019-02-22T00:59:50.943Z,2.80
2019-02-22T01:00:22.252Z,2.73
2019-02-22T01:00:53.491Z,3.33
2019-02-22T01:01:25.807Z,3.37
2019-02-22T01:01:58.033Z,3.10
2019-02-22T01:02:29.284Z,3.00
2019-02-22T01:03:01.543Z,2.90
2019-02-22T01:03:32.847Z,2.80
2019-02-22T01:04:04.111Z,2.90
2019-02-22T01:04:35.395Z,2.60
2019-02-22T01:05:06.621Z,2.83
2019-02-22T01:05:38.051Z,3.10
2019-02-22T01:06:09.303Z,3.00
2019-02-22T01:06:40.619Z,3.40
2019-02-22T01:07:11.906Z,3.60
2019-02-22T01:07:43.415Z,4.10
2019-02-22T01:08:14.671Z,4.40
2019-02-22T01:08:46.223Z,4.30
2019-02-22T01:09:17.468Z,4.40
2019-02-22T01:09:48.768Z,4.40
2019-02-22T01:10:30.422Z,4.10
2019-02-22T01:10:53.241Z,3.50
2019-02-22T01:11:24.486Z,3.13
2019-02-22T01:11:55.802Z,2.87
2019-02-22T01:12:27.054Z,2.90
2019-02-22T01:12:58.356Z,2.93
2019-02-22T01:13:29.704Z,2.77
2019-02-22T01:14:01.024Z,3.30
2019-02-22T01:14:32.404Z,2.57
2019-02-22T01:15:05.150Z,3.20
2019-02-22T01:15:36.603Z,2.83
2019-02-22T01:16:07.976Z,2.60
2019-02-22T01:16:40.310Z,2.90
2019-02-22T01:17:11.658Z,2.60
2019-02-22T01:17:43.239Z,3.00
2019-02-22T01:18:14.603Z,3.10
2019-02-22T01:18:46.006Z,2.93
2019-02-22T01:19:17.439Z,3.17
2019-02-22T01:19:48.769Z,2.77
2019-02-22T01:20:20.217Z,2.80
2019-02-22T01:20:54.472Z,2.90
2019-02-22T01:21:24.705Z,3.47
2019-02-22T01:21:56.020Z,2.70
2019-02-22T01:22:27.266Z,3.07
2019-02-22T01:22:58.601Z,2.63
2019-02-22T01:23:29.872Z,2.40
2019-02-22T01:24:01.194Z,2.63
2019-02-22T01:24:32.501Z,2.30
2019-02-22T01:25:04.077Z,2.63
2019-02-22T01:25:35.491Z,2.23
2019-02-22T01:26:06.827Z,2.23
2019-02-22T01:26:38.137Z,2.37
2019-02-22T01:27:09.538Z,2.30
2019-02-22T01:27:40.911Z,2.70
2019-02-22T01:28:15.014Z,2.57
2019-02-22T01:28:46.512Z,2.70
2019-02-22T01:29:17.900Z,2.60
2019-02-22T01:29:49.207Z,2.57
2019-02-22T01:30:20.433Z,2.93
2019-02-22T01:30:51.748Z,2.80
2019-02-22T01:31:22.983Z,2.90
2019-02-22T01:31:54.314Z,2.57
2019-02-22T01:32:25.568Z,2.33
2019-02-22T01:32:56.882Z,2.70
2019-02-22T01:33:28.112Z,2.40
2019-02-22T01:33:59.438Z,2.40
2019-02-22T01:34:30.686Z,2.23
2019-02-22T01:35:02.006Z,2.43
2019-02-22T01:35:34.400Z,2.47
2019-02-22T01:36:05.822Z,2.60
2019-02-22T01:36:37.156Z,2.50
2019-02-22T01:37:08.504Z,2.43
2019-02-22T01:37:39.769Z,2.93
2019-02-22T01:38:11.128Z,2.47
2019-02-22T01:38:43.355Z,2.70
2019-02-22T01:39:14.778Z,2.67
2019-02-22T01:39:46.069Z,2.60
2019-02-22T01:40:17.449Z,2.50
2019-02-22T01:40:48.788Z,2.80
2019-02-22T01:41:20.240Z,2.13
2019-02-22T01:41:51.583Z,2.83
2019-02-22T01:42:23.927Z,2.53
2019-02-22T01:42:55.380Z,3.00
2019-02-22T01:43:26.698Z,2.30
2019-02-22T01:43:58.051Z,2.43
2019-02-22T01:44:29.391Z,2.43
2019-02-22T01:45:00.695Z,2.40
2019-02-22T01:45:31.923Z,2.30
2019-02-22T01:46:03.387Z,2.20
2019-02-22T01:46:34.601Z,2.43
2019-02-22T01:47:05.899Z,2.57
2019-02-22T01:47:37.159Z,2.57
2019-02-22T01:48:08.472Z,3.00
2019-02-22T01:48:39.733Z,2.80
2019-02-22T01:49:11.022Z,2.77
2019-02-22T01:49:42.265Z,2.50
2019-02-22T01:50:20.580Z,2.50
2019-02-22T01:50:51.901Z,2.23
2019-02-22T01:51:23.304Z,3.00
2019-02-22T01:51:54.556Z,2.70
2019-02-22T01:52:25.872Z,2.70
2019-02-22T01:52:57.111Z,2.70
2019-02-22T01:53:28.431Z,2.50
2019-02-22T01:53:59.654Z,2.07
2019-02-22T01:54:31.976Z,2.63
2019-02-22T01:55:03.265Z,2.70
2019-02-22T01:55:34.775Z,2.77
2019-02-22T01:56:06.222Z,2.97
2019-02-22T01:56:37.548Z,2.30
2019-02-22T01:57:08.959Z,3.30
2019-02-22T01:57:40.299Z,2.50
2019-02-22T01:58:11.745Z,2.20
2019-02-22T01:58:48.724Z,2.93
2019-02-22T01:59:16.481Z,2.40
2019-02-22T01:59:47.808Z,3.07
2019-02-22T02:00:19.147Z,3.33
2019-02-22T02:00:50.468Z,3.23
2019-02-22T02:01:21.780Z,3.23
2019-02-22T02:01:53.113Z,3.23
2019-02-22T02:02:24.420Z,3.20
2019-02-22T02:02:55.677Z,3.50
2019-02-22T02:03:26.989Z,2.90
2019-02-22T02:03:58.237Z,2.97
2019-02-22T02:04:29.691Z,3.20
2019-02-22T02:05:00.987Z,3.50
2019-02-22T02:05:32.337Z,4.20
2019-02-22T02:06:03.707Z,4.33
2019-02-22T02:06:35.042Z,5.03
2019-02-22T02:07:06.371Z,4.50
2019-02-22T02:07:38.738Z,4.63
2019-02-22T02:08:10.183Z,3.80
2019-02-22T02:08:41.505Z,3.40
2019-02-22T02:09:12.864Z,3.37
2019-02-22T02:09:44.251Z,2.80
2019-02-22T02:10:15.649Z,2.60
2019-02-22T02:10:53.893Z,3.37
2019-02-22T02:11:20.076Z,3.10
2019-02-22T02:11:51.309Z,2.90
2019-02-22T02:12:22.616Z,2.67
2019-02-22T02:12:53.838Z,2.67
2019-02-22T02:13:25.144Z,2.53
2019-02-22T02:13:56.427Z,2.60
2019-02-22T02:14:27.734Z,3.43
2019-02-22T02:14:58.998Z,3.07
2019-02-22T02:15:30.310Z,3.13
2019-02-22T02:16:01.548Z,3.30
2019-02-22T02:16:33.866Z,2.50
2019-02-22T02:17:05.110Z,2.63
2019-02-22T02:17:36.471Z,2.90
2019-02-22T02:18:07.776Z,2.93
2019-02-22T02:18:39.136Z,3.23
2019-02-22T02:19:10.358Z,3.00
2019-02-22T02:19:42.776Z,2.97
2019-02-22T02:20:14.166Z,3.20
2019-02-22T02:20:45.980Z,3.37
2019-02-22T02:21:17.391Z,3.17
2019-02-22T02:21:48.845Z,2.50
2019-02-22T02:22:20.217Z,2.63
2019-02-22T02:22:51.574Z,3.00
2019-02-22T02:23:22.917Z,3.07
2019-02-22T02:23:54.261Z,3.20
2019-02-22T02:24:25.687Z,3.23
2019-02-22T02:24:57.007Z,3.50
2019-02-22T02:25:28.331Z,3.37
2019-02-22T02:25:59.571Z,3.20
2019-02-22T02:26:30.879Z,3.13
2019-02-22T02:27:02.113Z,2.87
2019-02-22T02:27:33.437Z,2.80
2019-02-22T02:28:04.667Z,2.80
2019-02-22T02:28:35.985Z,2.73
2019-02-22T02:29:07.248Z,2.97
2019-02-22T02:29:38.568Z,3.10
2019-02-22T02:30:09.830Z,2.80
2019-02-22T02:30:41.208Z,2.73
2019-02-22T02:31:12.740Z,2.73
2019-02-22T02:31:44.145Z,2.60
2019-02-22T02:32:15.368Z,2.97
2019-02-22T02:32:46.677Z,3.00
2019-02-22T02:33:18.081Z,3.40
2019-02-22T02:33:49.459Z,3.00
2019-02-22T02:34:20.749Z,2.77
2019-02-22T02:34:52.102Z,3.03
2019-02-22T02:35:23.409Z,2.63
2019-02-22T02:35:54.638Z,2.83
2019-02-22T02:36:26.050Z,2.60
2019-02-22T02:36:57.294Z,2.83
2019-02-22T02:37:28.600Z,2.50
2019-02-22T02:37:59.873Z,2.67
2019-02-22T02:38:31.199Z,2.83
2019-02-22T02:39:03.847Z,3.00
2019-02-22T02:39:37.097Z,2.70
2019-02-22T02:40:08.397Z,2.60
2019-02-22T02:40:39.635Z,2.93
2019-02-22T02:41:11.589Z,2.97
2019-02-22T02:41:44.389Z,2.90
2019-02-22T02:42:15.613Z,3.50
2019-02-22T02:42:46.888Z,2.67
2019-02-22T02:43:18.091Z,2.40
2019-02-22T02:43:49.337Z,2.50
2019-02-22T02:44:20.510Z,2.60
2019-02-22T02:44:51.799Z,2.83
2019-02-22T02:45:22.995Z,2.53
2019-02-22T02:45:54.301Z,2.80
2019-02-22T02:46:25.565Z,2.70
2019-02-22T02:46:56.821Z,2.60
2019-02-22T02:47:28.264Z,2.80
2019-02-22T02:47:59.713Z,2.60
2019-02-22T02:48:31.078Z,3.00
2019-02-22T02:49:02.469Z,2.80
2019-02-22T02:49:33.778Z,2.77
2019-02-22T02:50:06.591Z,2.50
2019-02-22T02:50:37.911Z,2.97
2019-02-22T02:51:09.259Z,2.30
2019-02-22T02:51:40.523Z,2.17
2019-02-22T02:52:11.752Z,2.40
2019-02-22T02:52:43.558Z,2.73
2019-02-22T02:53:15.849Z,2.60
2019-02-22T02:53:47.046Z,2.40
2019-02-22T02:54:18.284Z,2.40
2019-02-22T02:54:49.524Z,2.40
2019-02-22T02:55:28.351Z,3.00
2019-02-22T02:55:59.688Z,2.60
2019-02-22T02:56:30.925Z,2.73
2019-02-22T02:57:02.163Z,2.90
2019-02-22T02:57:33.528Z,3.13
2019-02-22T02:58:04.915Z,2.73
2019-02-22T02:58:36.306Z,3.00
2019-02-22T02:59:07.689Z,2.60
2019-02-22T02:59:39.032Z,2.30
2019-02-22T03:00:10.489Z,2.50
2019-02-22T03:00:41.882Z,3.10
2019-02-22T03:01:14.223Z,2.90
2019-02-22T03:01:45.851Z,2.97
2019-02-22T03:02:18.915Z,3.63
2019-02-22T03:02:50.185Z,3.50
2019-02-22T03:03:21.468Z,3.37
2019-02-22T03:03:52.823Z,3.10
2019-02-22T03:04:24.099Z,2.87
2019-02-22T03:04:55.397Z,2.90
2019-02-22T03:05:28.518Z,2.73
2019-02-22T03:06:01.637Z,2.57
2019-02-22T03:06:46.492Z,2.73
2019-02-22T03:07:35.962Z,2.43
2019-02-22T03:08:07.243Z,2.63
2019-02-22T03:08:38.581Z,2.70
2019-02-22T03:09:09.830Z,2.80
2019-02-22T03:09:41.729Z,2.57
2019-02-22T03:10:12.953Z,2.63
2019-02-22T03:10:44.379Z,2.57
2019-02-22T03:11:20.585Z,2.70
2019-02-22T03:11:49.189Z,2.43
2019-02-22T03:12:20.567Z,2.70
2019-02-22T03:12:51.931Z,2.33
2019-02-22T03:13:23.304Z,2.20
2019-02-22T03:13:54.755Z,2.70
2019-02-22T03:14:26.153Z,2.60
2019-02-22T03:14:57.478Z,2.40
2019-02-22T03:15:28.891Z,2.70
2019-02-22T03:16:00.171Z,2.80
2019-02-22T03:16:31.375Z,2.83
2019-02-22T03:17:02.643Z,2.40
2019-02-22T03:17:34.987Z,2.80
2019-02-22T03:18:06.407Z,2.60
2019-02-22T03:18:37.725Z,2.47
2019-02-22T03:19:09.102Z,2.90
2019-02-22T03:19:40.449Z,3.00
2019-02-22T03:20:11.891Z,3.07
2019-02-22T03:20:44.428Z,3.10
2019-02-22T03:21:16.898Z,2.60
2019-02-22T03:21:48.273Z,3.13
2019-02-22T03:22:19.716Z,2.50
2019-02-22T03:22:51.245Z,2.50
2019-02-22T03:23:22.656Z,3.30
2019-02-22T03:23:53.956Z,2.43
2019-02-22T03:24:25.441Z,2.23
2019-02-22T03:24:56.721Z,3.00
2019-02-22T03:25:28.112Z,2.90
2019-02-22T03:25:59.387Z,2.80
2019-02-22T03:26:30.747Z,3.20
2019-02-22T03:27:02.166Z,3.17
2019-02-22T03:27:33.562Z,3.13
2019-02-22T03:28:04.951Z,3.00
2019-02-22T03:28:36.425Z,3.17
2019-02-22T03:29:07.707Z,2.63
2019-02-22T03:29:39.019Z,2.77
2019-02-22T03:30:10.310Z,3.07
2019-02-22T03:30:41.914Z,2.80
2019-02-22T03:31:13.221Z,2.93
2019-02-22T03:31:44.583Z,3.23
2019-02-22T03:32:15.877Z,3.00
2019-02-22T03:32:47.276Z,2.70
2019-02-22T03:33:18.658Z,2.63
2019-02-22T03:33:50.103Z,2.50
2019-02-22T03:34:21.427Z,2.67
2019-02-22T03:34:52.674Z,3.07
2019-02-22T03:35:23.874Z,3.20
2019-02-22T03:35:55.200Z,3.00
2019-02-22T03:36:26.512Z,2.60
2019-02-22T03:36:57.898Z,2.83
2019-02-22T03:37:29.203Z,2.47
2019-02-22T03:38:00.605Z,2.10
2019-02-22T03:38:32.152Z,2.70
2019-02-22T03:39:04.904Z,2.60
2019-02-22T03:39:38.283Z,2.70
2019-02-22T03:40:09.811Z,2.90
2019-02-22T03:40:41.472Z,3.13
2019-02-22T03:41:13.116Z,2.83
2019-02-22T03:41:44.701Z,2.50
2019-02-22T03:42:15.921Z,2.60
2019-02-22T03:42:47.281Z,2.80
2019-02-22T03:43:18.600Z,2.80
2019-02-22T03:43:50.037Z,2.93
2019-02-22T03:44:21.390Z,3.30
2019-02-22T03:44:52.761Z,3.30
2019-02-22T03:45:24.162Z,3.53
2019-02-22T03:45:55.421Z,3.70
2019-02-22T03:46:26.748Z,3.10
2019-02-22T03:46:58.197Z,3.07
2019-02-22T03:47:29.504Z,3.10
2019-02-22T03:48:00.975Z,3.30
2019-02-22T03:48:32.275Z,3.07
2019-02-22T03:49:03.619Z,2.83
2019-02-22T03:49:34.956Z,3.37
2019-02-22T03:50:06.853Z,3.40
2019-02-22T03:50:38.257Z,4.07
2019-02-22T03:51:09.663Z,3.70
2019-02-22T03:51:41.071Z,3.57
2019-02-22T03:52:17.195Z,3.70
2019-02-22T03:52:53.277Z,3.83
2019-02-22T03:53:26.606Z,3.87
2019-02-22T03:53:58.151Z,3.83
2019-02-22T03:54:29.542Z,3.20
2019-02-22T03:55:01.124Z,3.90
2019-02-22T03:55:33.503Z,3.73
2019-02-22T03:56:05.035Z,3.00
2019-02-22T03:56:36.474Z,2.80
2019-02-22T03:57:07.918Z,3.37
2019-02-22T03:57:39.298Z,3.00
2019-02-22T03:58:10.659Z,2.80
2019-02-22T03:58:42.127Z,3.10
2019-02-22T03:59:13.687Z,3.10
2019-02-22T03:59:45.083Z,2.60
2019-02-22T04:00:16.553Z,2.67
2019-02-22T04:00:47.931Z,3.23
2019-02-22T04:01:19.313Z,2.27
2019-02-22T04:01:50.761Z,2.90
2019-02-22T04:02:22.317Z,2.50
2019-02-22T04:02:53.800Z,2.70
2019-02-22T04:03:25.140Z,2.87
2019-02-22T04:03:56.622Z,2.50
2019-02-22T04:04:27.938Z,2.30
2019-02-22T04:04:59.304Z,2.20
2019-02-22T04:05:30.549Z,2.40
2019-02-22T04:06:01.858Z,2.60
2019-02-22T04:06:33.150Z,2.50
2019-02-22T04:07:04.636Z,2.87
2019-02-22T04:07:35.934Z,2.50
2019-02-22T04:08:07.482Z,2.80
2019-02-22T04:08:38.793Z,2.23
2019-02-22T04:09:10.229Z,2.70
2019-02-22T04:09:41.737Z,2.50
2019-02-22T04:10:13.503Z,2.97
2019-02-22T04:10:44.825Z,2.67
2019-02-22T04:11:16.455Z,2.67
2019-02-22T04:11:47.657Z,2.20
2019-02-22T04:12:19.064Z,2.20
2019-02-22T04:12:50.420Z,2.43
2019-02-22T04:13:21.772Z,2.30
2019-02-22T04:13:53.132Z,3.00
2019-02-22T04:14:24.573Z,2.50
2019-02-22T04:14:55.892Z,2.40
2019-02-22T04:15:27.321Z,2.70
2019-02-22T04:15:58.667Z,2.60
2019-02-22T04:16:30.052Z,2.17
2019-02-22T04:17:01.399Z,2.37
2019-02-22T04:17:32.719Z,2.50
2019-02-22T04:18:04.014Z,3.30
2019-02-22T04:18:35.269Z,3.10
2019-02-22T04:19:06.754Z,2.80
2019-02-22T04:19:38.188Z,2.30
2019-02-22T04:20:09.557Z,2.30
2019-02-22T04:20:40.959Z,2.10
2019-02-22T04:21:12.617Z,2.47
2019-02-22T04:21:44.029Z,2.80
2019-02-22T04:22:15.755Z,2.80
2019-02-22T04:22:47.112Z,2.90
2019-02-22T04:23:18.562Z,2.23
2019-02-22T04:23:49.851Z,2.30
2019-02-22T04:24:22.117Z,2.93
2019-02-22T04:24:53.550Z,2.87
2019-02-22T04:25:25.017Z,2.60
2019-02-22T04:25:56.548Z,2.57
2019-02-22T04:26:28.190Z,2.70
2019-02-22T04:26:59.556Z,2.53
2019-02-22T04:27:30.814Z,2.77
2019-02-22T04:28:02.179Z,2.47
2019-02-22T04:28:33.661Z,2.90
2019-02-22T04:29:05.347Z,2.77
2019-02-22T04:29:36.737Z,3.00
2019-02-22T04:30:09.178Z,3.00
2019-02-22T04:30:40.526Z,3.20
2019-02-22T04:31:11.947Z,3.03
2019-02-22T04:31:43.184Z,2.50
2019-02-22T04:32:14.612Z,2.67
2019-02-22T04:32:45.953Z,2.80
2019-02-22T04:33:17.342Z,3.10
2019-02-22T04:33:48.836Z,3.07
2019-02-22T04:34:20.315Z,3.63
2019-02-22T04:34:51.681Z,3.53
2019-02-22T04:35:23.085Z,3.30
2019-02-22T04:35:54.382Z,3.97
2019-02-22T04:36:26.747Z,4.37
2019-02-22T04:36:58.072Z,4.00
2019-02-22T04:37:29.506Z,3.70
2019-02-22T04:38:00.917Z,3.40
2019-02-22T04:38:32.287Z,3.30
2019-02-22T04:39:05.226Z,2.90
2019-02-22T04:39:36.800Z,3.50
2019-02-22T04:40:08.113Z,3.17
2019-02-22T04:40:39.448Z,3.43
2019-02-22T04:41:10.954Z,3.43
2019-02-22T04:41:42.341Z,3.33
2019-02-22T04:42:13.792Z,3.67
2019-02-22T04:42:45.189Z,4.13
2019-02-22T04:43:16.641Z,3.90
2019-02-22T04:43:48.223Z,4.57
2019-02-22T04:44:19.639Z,4.53
2019-02-22T04:44:51.085Z,5.33
2019-02-22T04:45:22.560Z,4.47
2019-02-22T04:45:54.031Z,4.57
2019-02-22T04:46:25.501Z,4.17
2019-02-22T04:46:57.009Z,4.43
2019-02-22T04:47:28.439Z,4.50
2019-02-22T04:47:59.769Z,4.43
2019-02-22T04:48:31.241Z,4.20
2019-02-22T04:49:02.582Z,3.97
2019-02-22T04:49:34.122Z,3.90
2019-02-22T04:50:06.436Z,4.27
2019-02-22T04:50:37.770Z,3.87
2019-02-22T04:51:09.094Z,3.30
2019-02-22T04:51:40.684Z,3.70
2019-02-22T04:52:12.033Z,3.57
2019-02-22T04:52:43.519Z,4.30
2019-02-22T04:53:14.774Z,4.33
2019-02-22T04:53:47.270Z,5.00
2019-02-22T04:54:18.539Z,4.30
2019-02-22T04:54:50.059Z,3.50
2019-02-22T04:55:21.277Z,3.63
2019-02-22T04:55:52.591Z,3.63
2019-02-22T04:56:23.909Z,3.87
2019-02-22T04:56:55.227Z,4.43
2019-02-22T04:57:26.610Z,3.83
2019-02-22T04:57:57.922Z,3.53
2019-02-22T04:58:29.442Z,3.87
2019-02-22T04:59:00.999Z,3.57
2019-02-22T04:59:32.595Z,2.63
2019-02-22T05:00:04.039Z,3.60
2019-02-22T05:00:35.484Z,4.70
2019-02-22T05:01:06.962Z,4.87
2019-02-22T05:01:38.377Z,4.00
2019-02-22T05:02:09.743Z,3.37
2019-02-22T05:02:41.154Z,3.70
2019-02-22T05:03:12.345Z,2.90
2019-02-22T05:03:43.844Z,2.70
2019-02-22T05:04:15.247Z,3.20
2019-02-22T05:04:46.799Z,3.50
2019-02-22T05:05:18.165Z,3.17
2019-02-22T05:05:50.471Z,2.93
2019-02-22T05:06:21.747Z,3.20
2019-02-22T05:06:54.027Z,2.97
2019-02-22T05:07:25.371Z,3.50
2019-02-22T05:07:56.805Z,3.20
2019-02-22T05:08:28.273Z,2.77
2019-02-22T05:08:59.558Z,3.57
2019-02-22T05:09:31.108Z,3.20
2019-02-22T05:10:02.810Z,3.50
2019-02-22T05:10:34.302Z,2.93
2019-02-22T05:11:05.761Z,3.23
2019-02-22T05:11:37.173Z,3.27
2019-02-22T05:12:11.219Z,3.10
2019-02-22T05:12:41.832Z,3.40
2019-02-22T05:13:13.234Z,3.93
2019-02-22T05:13:45.628Z,3.80
2019-02-22T05:14:16.853Z,4.33
2019-02-22T05:14:48.358Z,3.90
2019-02-22T05:15:19.616Z,3.70
2019-02-22T05:15:51.027Z,3.73
2019-02-22T05:16:22.328Z,4.00
2019-02-22T05:16:53.676Z,3.60
2019-02-22T05:17:25.133Z,3.57
2019-02-22T05:17:56.416Z,3.53
2019-02-22T05:18:27.719Z,2.80
2019-02-22T05:18:59.049Z,2.70
2019-02-22T05:19:30.311Z,2.80
2019-02-22T05:20:01.905Z,3.10
2019-02-22T05:20:33.333Z,2.70
2019-02-22T05:21:04.826Z,2.90
2019-02-22T05:21:36.237Z,3.03
2019-02-22T05:22:07.533Z,2.70
2019-02-22T05:22:39.020Z,2.90
2019-02-22T05:23:10.405Z,2.40
2019-02-22T05:23:41.876Z,2.70
2019-02-22T05:24:13.615Z,2.97
2019-02-22T05:24:45.050Z,2.97
2019-02-22T05:25:16.516Z,3.10
2019-02-22T05:25:48.049Z,3.27
2019-02-22T05:26:19.514Z,3.00
2019-02-22T05:26:50.992Z,4.63
2019-02-22T05:27:22.503Z,5.30
2019-02-22T05:27:54.990Z,3.43
2019-02-22T05:28:26.361Z,4.00
2019-02-22T05:28:57.763Z,3.40
2019-02-22T05:29:29.164Z,3.60
2019-02-22T05:30:00.544Z,3.20
2019-02-22T05:30:31.887Z,2.70
2019-02-22T05:31:03.231Z,2.57
2019-02-22T05:31:34.543Z,2.80
2019-02-22T05:32:05.933Z,2.50
2019-02-22T05:32:37.459Z,2.57
2019-02-22T05:33:09.871Z,2.60
2019-02-22T05:33:41.123Z,2.87
2019-02-22T05:34:12.593Z,2.70
2019-02-22T05:34:43.959Z,3.30
2019-02-22T05:35:15.660Z,3.40
2019-02-22T05:35:46.856Z,3.33
2019-02-22T05:36:18.251Z,3.60
2019-02-22T05:36:49.514Z,3.70
2019-02-22T05:37:21.591Z,3.27
2019-02-22T05:37:52.988Z,4.03
2019-02-22T05:38:24.511Z,4.70
2019-02-22T05:38:55.869Z,4.50
2019-02-22T05:39:27.411Z,4.37
2019-02-22T05:39:58.923Z,4.07
2019-02-22T05:40:30.490Z,4.50
2019-02-22T05:41:01.869Z,4.47
2019-02-22T05:41:33.418Z,4.60
2019-02-22T05:42:04.837Z,5.17
2019-02-22T05:42:36.157Z,4.63
2019-02-22T05:43:07.484Z,5.00
2019-02-22T05:43:38.837Z,5.00
2019-02-22T05:44:10.128Z,4.50
2019-02-22T05:44:41.452Z,4.07
2019-02-22T05:45:12.925Z,4.00
2019-02-22T05:45:44.207Z,4.00
2019-02-22T05:46:15.726Z,3.87
2019-02-22T05:46:47.017Z,3.50
2019-02-22T05:47:18.336Z,3.50
2019-02-22T05:47:49.747Z,3.83
2019-02-22T05:48:22.161Z,3.50
2019-02-22T05:48:53.472Z,3.17
2019-02-22T05:49:24.899Z,3.00
2019-02-22T05:49:56.227Z,3.00
2019-02-22T05:50:27.499Z,3.10
2019-02-22T05:50:58.847Z,3.27
2019-02-22T05:51:30.248Z,3.47
2019-02-22T05:52:01.522Z,4.27
2019-02-22T05:52:32.937Z,3.13
2019-02-22T05:53:04.514Z,3.30
2019-02-22T05:53:36.072Z,4.00
2019-02-22T05:54:07.508Z,4.07
2019-02-22T05:54:38.892Z,4.93
2019-02-22T05:55:10.421Z,5.00
2019-02-22T05:55:44.139Z,4.93
2019-02-22T05:56:15.171Z,4.53
2019-02-22T05:56:46.707Z,5.93
2019-02-22T05:57:18.148Z,5.47
2019-02-22T05:57:49.645Z,4.83
2019-02-22T05:58:21.061Z,4.47
2019-02-22T05:58:52.427Z,3.33
2019-02-22T05:59:23.844Z,3.40
2019-02-22T05:59:55.264Z,3.63
2019-02-22T06:00:26.780Z,3.40
2019-02-22T06:00:58.003Z,4.00
2019-02-22T06:01:29.445Z,3.37
2019-02-22T06:02:00.769Z,3.57
2019-02-22T06:02:34.062Z,3.77
2019-02-22T06:03:06.047Z,3.90
2019-02-22T06:03:37.538Z,4.70
2019-02-22T06:04:08.935Z,4.67
2019-02-22T06:04:40.430Z,4.07
2019-02-22T06:05:11.780Z,3.83
2019-02-22T06:05:43.121Z,5.00
2019-02-22T06:06:14.446Z,5.27
2019-02-22T06:06:45.922Z,4.93
2019-02-22T06:07:17.281Z,4.97
2019-02-22T06:07:48.794Z,4.97
2019-02-22T06:08:20.224Z,4.80
2019-02-22T06:08:51.586Z,4.27
2019-02-22T06:09:23.088Z,4.83
2019-02-22T06:09:54.500Z,5.03
2019-02-22T06:10:26.960Z,5.07
2019-02-22T06:10:58.443Z,5.10
2019-02-22T06:11:29.938Z,5.07
2019-02-22T06:12:01.188Z,4.63
2019-02-22T06:12:34.894Z,4.77
2019-02-22T06:13:06.546Z,5.30
2019-02-22T06:13:37.927Z,5.43
2019-02-22T06:14:09.445Z,6.73
2019-02-22T06:14:40.967Z,5.90
2019-02-22T06:15:12.243Z,5.40
2019-02-22T06:15:43.563Z,5.00
2019-02-22T06:16:14.842Z,5.00
2019-02-22T06:16:46.323Z,4.50
2019-02-22T06:17:17.675Z,4.13
2019-02-22T06:17:49.041Z,4.20
2019-02-22T06:18:23.036Z,4.20
2019-02-22T06:18:53.685Z,4.03
2019-02-22T06:19:26.156Z,4.53
2019-02-22T06:19:57.547Z,4.53
2019-02-22T06:20:29.095Z,4.70
2019-02-22T06:21:00.559Z,4.50
2019-02-22T06:21:31.861Z,4.00
2019-02-22T06:22:04.164Z,5.67
2019-02-22T06:22:35.620Z,5.80
2019-02-22T06:23:07.028Z,6.60
2019-02-22T06:23:38.540Z,6.90
2019-02-22T06:24:09.919Z,6.30
2019-02-22T06:24:41.456Z,5.77
2019-02-22T06:25:12.891Z,5.03
2019-02-22T06:25:44.417Z,5.00
2019-02-22T06:26:15.716Z,4.20
2019-02-22T06:26:47.144Z,4.30
2019-02-22T06:27:18.609Z,4.27
2019-02-22T06:27:50.023Z,4.77
2019-02-22T06:28:21.294Z,5.73
2019-02-22T06:28:52.623Z,6.77
2019-02-22T06:29:24.153Z,7.27
2019-02-22T06:29:55.638Z,8.43
2019-02-22T06:30:27.111Z,8.20
2019-02-22T06:30:58.325Z,9.17
2019-02-22T06:31:29.610Z,11.70
2019-02-22T06:32:00.935Z,13.43
2019-02-22T06:32:32.417Z,10.90
2019-02-22T06:33:03.702Z,10.43
2019-02-22T06:33:35.155Z,8.97
2019-02-22T06:34:06.569Z,10.37
2019-02-22T06:34:37.903Z,9.43
2019-02-22T06:35:10.411Z,8.40
2019-02-22T06:35:41.790Z,7.43
2019-02-22T06:36:13.337Z,6.07
2019-02-22T06:36:44.766Z,5.83
2019-02-22T06:37:16.163Z,4.87
2019-02-22T06:37:47.678Z,5.80
2019-02-22T06:38:19.089Z,5.50
2019-02-22T06:38:50.581Z,4.93
2019-02-22T06:39:21.991Z,4.20
2019-02-22T06:39:53.540Z,4.20
2019-02-22T06:40:24.905Z,5.97
2019-02-22T06:40:56.313Z,8.50
2019-02-22T06:41:28.751Z,11.23
2019-02-22T06:42:00.259Z,10.13
2019-02-22T06:42:32.578Z,9.63
2019-02-22T06:43:04.832Z,9.20
2019-02-22T06:43:36.349Z,5.40
2019-02-22T06:44:07.709Z,3.87
2019-02-22T06:44:39.122Z,4.90
2019-02-22T06:45:10.435Z,4.90
2019-02-22T06:45:41.823Z,5.27
2019-02-22T06:46:13.681Z,5.47
2019-02-22T06:46:44.960Z,6.37
2019-02-22T06:47:16.265Z,7.63
2019-02-22T06:47:48.518Z,8.50
2019-02-22T06:48:19.939Z,8.33
2019-02-22T06:48:51.327Z,7.93
2019-02-22T06:49:22.613Z,7.67
2019-02-22T06:49:54.129Z,6.53
2019-02-22T06:50:33.833Z,7.13
2019-02-22T06:50:58.761Z,8.33
2019-02-22T06:51:30.217Z,9.53
2019-02-22T06:52:01.844Z,10.17
2019-02-22T06:52:33.209Z,14.03
2019-02-22T06:53:04.844Z,12.47
2019-02-22T06:53:36.530Z,10.80
2019-02-22T06:54:08.815Z,11.50
2019-02-22T06:54:40.236Z,10.33
2019-02-22T06:55:11.554Z,9.17
2019-02-22T06:55:43.072Z,9.50
2019-02-22T06:56:14.472Z,10.93
2019-02-22T06:56:47.044Z,11.57
2019-02-22T06:57:18.508Z,10.10
2019-02-22T06:57:50.140Z,9.63
2019-02-22T06:58:21.671Z,11.80
2019-02-22T06:58:53.199Z,14.40
2019-02-22T06:59:24.526Z,14.77
2019-02-22T06:59:56.050Z,13.73